sensor_id;sensor_type;location;lat;lon;timestamp;pressure;altitude;pressure_sealevel;temperature;humidity
52535;BME280;38443;53.164;5.802;2022-08-05T00:00:03;101747.72;;;16.97;69.70
52535;BME280;38443;53.164;5.802;2022-08-05T00:02:28;101744.16;;;16.97;69.71
52535;BME280;38443;53.164;5.802;2022-08-05T00:04:54;101751.31;;;16.98;69.80
52535;BME280;38443;53.164;5.802;2022-08-05T00:07:19;101750.38;;;16.99;69.56
52535;BME280;38443;53.164;5.802;2022-08-05T00:09:44;101746.66;;;17.01;69.42
52535;BME280;38443;53.164;5.802;2022-08-05T00:12:10;101747.53;;;17.02;69.74
52535;BME280;38443;53.164;5.802;2022-08-05T00:14:35;101748.34;;;17.04;69.51
52535;BME280;38443;53.164;5.802;2022-08-05T00:17:00;101748.50;;;17.01;69.62
52535;BME280;38443;53.164;5.802;2022-08-05T00:19:26;101745.91;;;16.98;69.61
52535;BME280;38443;53.164;5.802;2022-08-05T00:21:51;101744.22;;;16.95;69.51
52535;BME280;38443;53.164;5.802;2022-08-05T00:24:17;101737.16;;;16.91;69.86
52535;BME280;38443;53.164;5.802;2022-08-05T00:26:42;101733.69;;;16.87;69.88
52535;BME280;38443;53.164;5.802;2022-08-05T00:29:07;101740.19;;;16.83;69.99
52535;BME280;38443;53.164;5.802;2022-08-05T00:31:33;101735.75;;;16.82;70.11
52535;BME280;38443;53.164;5.802;2022-08-05T00:33:58;101737.53;;;16.82;70.07
52535;BME280;38443;53.164;5.802;2022-08-05T00:36:23;101727.63;;;16.82;70.08
52535;BME280;38443;53.164;5.802;2022-08-05T00:38:49;101718.56;;;16.83;70.20
52535;BME280;38443;53.164;5.802;2022-08-05T00:41:28;101720.38;;;16.83;70.80
52535;BME280;38443;53.164;5.802;2022-08-05T00:43:54;101725.69;;;16.86;70.48
52535;BME280;38443;53.164;5.802;2022-08-05T00:46:20;101734.72;;;16.85;70.17
52535;BME280;38443;53.164;5.802;2022-08-05T00:48:45;101735.59;;;16.85;70.27
52535;BME280;38443;53.164;5.802;2022-08-05T00:51:11;101734.66;;;16.86;70.13
52535;BME280;38443;53.164;5.802;2022-08-05T00:53:36;101741.81;;;16.87;70.23
52535;BME280;38443;53.164;5.802;2022-08-05T00:56:02;101747.16;;;16.89;70.06
52535;BME280;38443;53.164;5.802;2022-08-05T00:58:27;101748.00;;;16.91;70.31
52535;BME280;38443;53.164;5.802;2022-08-05T01:00:53;101742.53;;;16.92;70.01
52535;BME280;38443;53.164;5.802;2022-08-05T01:03:18;101743.34;;;16.94;69.96
52535;BME280;38443;53.164;5.802;2022-08-05T01:05:43;101747.94;;;16.92;69.87
52535;BME280;38443;53.164;5.802;2022-08-05T01:08:09;101754.28;;;16.91;70.17
52535;BME280;38443;53.164;5.802;2022-08-05T01:10:39;101753.44;;;16.89;70.13
52535;BME280;38443;53.164;5.802;2022-08-05T01:13:12;101750.75;;;16.89;70.05
52535;BME280;38443;53.164;5.802;2022-08-05T01:15:43;101749.88;;;16.89;69.96
52535;BME280;38443;53.164;5.802;2022-08-05T01:18:21;101757.13;;;16.88;70.04
52535;BME280;38443;53.164;5.802;2022-08-05T01:21:00;101755.34;;;16.87;70.11
52535;BME280;38443;53.164;5.802;2022-08-05T01:23:56;101758.03;;;16.87;70.17
52535;BME280;38443;53.164;5.802;2022-08-05T01:26:31;101760.84;;;16.86;70.37
52535;BME280;38443;53.164;5.802;2022-08-05T01:29:03;101760.06;;;16.82;70.72
52535;BME280;38443;53.164;5.802;2022-08-05T01:31:39;101770.97;;;16.79;71.13
52535;BME280;38443;53.164;5.802;2022-08-05T01:34:11;101756.69;;;16.75;71.10
52535;BME280;38443;53.164;5.802;2022-08-05T01:36:42;101747.94;;;16.69;71.47
52535;BME280;38443;53.164;5.802;2022-08-05T01:39:10;101750.09;;;16.61;71.76
52535;BME280;38443;53.164;5.802;2022-08-05T01:41:36;101753.97;;;16.53;71.87
52535;BME280;38443;53.164;5.802;2022-08-05T01:44:02;101735.28;;;16.47;71.86
52535;BME280;38443;53.164;5.802;2022-08-05T01:46:31;101738.28;;;16.40;72.20
52535;BME280;38443;53.164;5.802;2022-08-05T01:48:59;101745.81;;;16.31;72.21
52535;BME280;38443;53.164;5.802;2022-08-05T01:51:26;101750.41;;;16.29;72.49
52535;BME280;38443;53.164;5.802;2022-08-05T01:53:53;101742.28;;;16.29;72.49
52535;BME280;38443;53.164;5.802;2022-08-05T01:56:21;101741.47;;;16.27;72.57
52535;BME280;38443;53.164;5.802;2022-08-05T01:58:48;101735.44;;;16.21;72.50
52535;BME280;38443;53.164;5.802;2022-08-05T02:01:17;101750.06;;;16.15;72.75
52535;BME280;38443;53.164;5.802;2022-08-05T02:03:45;101748.47;;;16.09;73.13
52535;BME280;38443;53.164;5.802;2022-08-05T02:06:12;101743.44;;;16.00;73.19
52535;BME280;38443;53.164;5.802;2022-08-05T02:08:39;101735.38;;;15.99;73.42
52535;BME280;38443;53.164;5.802;2022-08-05T02:11:11;101734.38;;;16.01;73.48
52535;BME280;38443;53.164;5.802;2022-08-05T02:13:44;101741.50;;;16.04;73.56
52535;BME280;38443;53.164;5.802;2022-08-05T02:16:21;101731.50;;;16.06;73.66
52535;BME280;38443;53.164;5.802;2022-08-05T02:19:00;101730.69;;;16.04;73.82
52535;BME280;38443;53.164;5.802;2022-08-05T02:21:30;101743.25;;;16.05;73.95
52535;BME280;38443;53.164;5.802;2022-08-05T02:24:00;101736.00;;;16.05;73.68
52535;BME280;38443;53.164;5.802;2022-08-05T02:26:35;101741.41;;;16.05;73.88
52535;BME280;38443;53.164;5.802;2022-08-05T02:29:02;101728.81;;;16.06;73.56
52535;BME280;38443;53.164;5.802;2022-08-05T02:31:31;101736.97;;;16.04;73.71
52535;BME280;38443;53.164;5.802;2022-08-05T02:34:06;101730.69;;;16.04;73.91
52535;BME280;38443;53.164;5.802;2022-08-05T02:36:34;101734.22;;;16.06;73.74
52535;BME280;38443;53.164;5.802;2022-08-05T02:39:02;101746.66;;;16.10;73.74
52535;BME280;38443;53.164;5.802;2022-08-05T02:41:29;101747.53;;;16.10;73.79
52535;BME280;38443;53.164;5.802;2022-08-05T02:43:57;101741.06;;;16.14;74.05
52535;BME280;38443;53.164;5.802;2022-08-05T02:46:24;101750.88;;;16.17;74.11
52535;BME280;38443;53.164;5.802;2022-08-05T02:48:51;101758.94;;;16.19;74.29
52535;BME280;38443;53.164;5.802;2022-08-05T02:51:17;101759.75;;;16.21;74.17
52535;BME280;38443;53.164;5.802;2022-08-05T02:53:44;101765.25;;;16.18;74.47
52535;BME280;38443;53.164;5.802;2022-08-05T02:56:11;101769.97;;;16.12;74.13
52535;BME280;38443;53.164;5.802;2022-08-05T02:58:41;101761.97;;;16.09;74.44
52535;BME280;38443;53.164;5.802;2022-08-05T03:01:10;101761.03;;;16.10;74.35
52535;BME280;38443;53.164;5.802;2022-08-05T03:03:41;101752.13;;;16.08;74.51
52535;BME280;38443;53.164;5.802;2022-08-05T03:06:10;101751.47;;;16.02;74.30
52535;BME280;38443;53.164;5.802;2022-08-05T03:08:38;101755.22;;;15.98;74.60
52535;BME280;38443;53.164;5.802;2022-08-05T03:11:03;101758.94;;;15.93;74.67
52535;BME280;38443;53.164;5.802;2022-08-05T03:13:40;101763.53;;;15.91;74.46
52535;BME280;38443;53.164;5.802;2022-08-05T03:16:05;101761.72;;;15.92;74.48
52535;BME280;38443;53.164;5.802;2022-08-05T03:18:31;101754.47;;;15.94;74.33
52535;BME280;38443;53.164;5.802;2022-08-05T03:20:56;101759.03;;;15.92;74.14
52535;BME280;38443;53.164;5.802;2022-08-05T03:23:21;101751.03;;;15.89;74.11
52535;BME280;38443;53.164;5.802;2022-08-05T03:25:47;101751.03;;;15.89;74.29
52535;BME280;38443;53.164;5.802;2022-08-05T03:28:13;101759.13;;;15.89;74.20
52535;BME280;38443;53.164;5.802;2022-08-05T03:30:39;101748.47;;;15.86;74.65
52535;BME280;38443;53.164;5.802;2022-08-05T03:33:05;101742.16;;;15.85;74.39
52535;BME280;38443;53.164;5.802;2022-08-05T03:35:30;101741.41;;;15.82;74.74
52535;BME280;38443;53.164;5.802;2022-08-05T03:38:01;101744.16;;;15.80;74.58
52535;BME280;38443;53.164;5.802;2022-08-05T03:40:27;101745.03;;;15.81;74.76
52535;BME280;38443;53.164;5.802;2022-08-05T03:42:53;101741.50;;;15.79;74.59
52535;BME280;38443;53.164;5.802;2022-08-05T03:45:18;101747.09;;;15.74;74.74
52535;BME280;38443;53.164;5.802;2022-08-05T03:47:44;101747.13;;;15.72;74.81
52535;BME280;38443;53.164;5.802;2022-08-05T03:50:10;101741.69;;;15.74;74.61
52535;BME280;38443;53.164;5.802;2022-08-05T03:52:57;101729.25;;;15.68;75.35
52535;BME280;38443;53.164;5.802;2022-08-05T03:55:27;101726.66;;;15.65;74.77
52535;BME280;38443;53.164;5.802;2022-08-05T03:57:55;101730.25;;;15.66;74.68
52535;BME280;38443;53.164;5.802;2022-08-05T04:00:22;101725.84;;;15.63;74.69
52535;BME280;38443;53.164;5.802;2022-08-05T04:02:54;101736.81;;;15.59;74.74
52535;BME280;38443;53.164;5.802;2022-08-05T04:05:22;101731.59;;;15.54;74.83
52535;BME280;38443;53.164;5.802;2022-08-05T04:07:49;101737.06;;;15.51;75.38
52535;BME280;38443;53.164;5.802;2022-08-05T04:10:16;101738.13;;;15.47;75.21
52535;BME280;38443;53.164;5.802;2022-08-05T04:12:42;101749.91;;;15.44;75.36
52535;BME280;38443;53.164;5.802;2022-08-05T04:15:09;101753.59;;;15.42;75.38
52535;BME280;38443;53.164;5.802;2022-08-05T04:17:35;101758.19;;;15.40;75.72
52535;BME280;38443;53.164;5.802;2022-08-05T04:20:00;101751.75;;;15.44;75.49
52535;BME280;38443;53.164;5.802;2022-08-05T04:22:26;101753.38;;;15.48;75.72
52535;BME280;38443;53.164;5.802;2022-08-05T04:24:51;101752.34;;;15.52;75.31
52535;BME280;38443;53.164;5.802;2022-08-05T04:27:16;101755.69;;;15.59;74.91
52535;BME280;38443;53.164;5.802;2022-08-05T04:29:42;101764.56;;;15.62;75.35
52535;BME280;38443;53.164;5.802;2022-08-05T04:32:08;101767.22;;;15.64;74.83
52535;BME280;38443;53.164;5.802;2022-08-05T04:34:33;101767.31;;;15.61;75.06
52535;BME280;38443;53.164;5.802;2022-08-05T04:36:59;101765.44;;;15.63;74.84
52535;BME280;38443;53.164;5.802;2022-08-05T04:39:25;101774.50;;;15.62;75.21
52535;BME280;38443;53.164;5.802;2022-08-05T04:41:50;101777.25;;;15.60;74.63
52535;BME280;38443;53.164;5.802;2022-08-05T04:44:16;101774.53;;;15.60;74.58
52535;BME280;38443;53.164;5.802;2022-08-05T04:46:41;101768.31;;;15.58;75.06
52535;BME280;38443;53.164;5.802;2022-08-05T04:49:07;101770.19;;;15.56;74.94
52535;BME280;38443;53.164;5.802;2022-08-05T04:51:32;101772.06;;;15.54;75.34
52535;BME280;38443;53.164;5.802;2022-08-05T04:53:58;101773.81;;;15.55;75.15
52535;BME280;38443;53.164;5.802;2022-08-05T04:56:24;101771.00;;;15.58;75.00
52535;BME280;38443;53.164;5.802;2022-08-05T04:58:50;101775.41;;;15.61;74.99
52535;BME280;38443;53.164;5.802;2022-08-05T05:01:15;101777.94;;;15.65;74.84
52535;BME280;38443;53.164;5.802;2022-08-05T05:03:41;101777.84;;;15.68;74.73
52535;BME280;38443;53.164;5.802;2022-08-05T05:06:10;101765.13;;;15.72;75.15
52535;BME280;38443;53.164;5.802;2022-08-05T05:08:36;101781.19;;;15.77;74.92
52535;BME280;38443;53.164;5.802;2022-08-05T05:11:02;101780.13;;;15.81;75.12
52535;BME280;38443;53.164;5.802;2022-08-05T05:13:28;101775.59;;;15.81;74.29
52535;BME280;38443;53.164;5.802;2022-08-05T05:15:53;101771.94;;;15.84;74.77
52535;BME280;38443;53.164;5.802;2022-08-05T05:18:18;101778.22;;;15.84;74.75
52535;BME280;38443;53.164;5.802;2022-08-05T05:20:45;101782.88;;;15.79;74.64
52535;BME280;38443;53.164;5.802;2022-08-05T05:23:12;101773.97;;;15.77;74.58
52535;BME280;38443;53.164;5.802;2022-08-05T05:25:42;101769.38;;;15.79;74.90
52535;BME280;38443;53.164;5.802;2022-08-05T05:28:10;101774.72;;;15.81;74.48
52535;BME280;38443;53.164;5.802;2022-08-05T05:30:36;101762.25;;;15.78;74.81
52535;BME280;38443;53.164;5.802;2022-08-05T05:33:05;101771.22;;;15.79;74.89
52535;BME280;38443;53.164;5.802;2022-08-05T05:35:31;101763.97;;;15.79;74.53
52535;BME280;38443;53.164;5.802;2022-08-05T05:37:58;101766.63;;;15.81;74.80
52535;BME280;38443;53.164;5.802;2022-08-05T05:40:31;101761.06;;;15.85;74.50
52535;BME280;38443;53.164;5.802;2022-08-05T05:42:57;101772.63;;;15.89;74.76
52535;BME280;38443;53.164;5.802;2022-08-05T05:45:22;101767.13;;;15.92;74.36
52535;BME280;38443;53.164;5.802;2022-08-05T05:47:48;101775.00;;;15.98;74.48
52535;BME280;38443;53.164;5.802;2022-08-05T05:50:17;101774.81;;;16.03;74.53
52535;BME280;38443;53.164;5.802;2022-08-05T05:52:43;101771.06;;;16.07;74.15
52535;BME280;38443;53.164;5.802;2022-08-05T05:55:10;101765.50;;;16.11;74.05
52535;BME280;38443;53.164;5.802;2022-08-05T05:57:37;101770.66;;;16.18;73.90
52535;BME280;38443;53.164;5.802;2022-08-05T06:00:04;101762.34;;;16.24;73.84
52535;BME280;38443;53.164;5.802;2022-08-05T06:02:31;101763.84;;;16.31;73.77
52535;BME280;38443;53.164;5.802;2022-08-05T06:04:56;101760.09;;;16.35;73.68
52535;BME280;38443;53.164;5.802;2022-08-05T06:07:21;101759.84;;;16.41;73.58
52535;BME280;38443;53.164;5.802;2022-08-05T06:09:47;101756.09;;;16.45;73.52
52535;BME280;38443;53.164;5.802;2022-08-05T06:12:12;101758.63;;;16.50;73.47
52535;BME280;38443;53.164;5.802;2022-08-05T06:14:37;101770.06;;;16.57;73.54
52535;BME280;38443;53.164;5.802;2022-08-05T06:17:03;101763.59;;;16.61;73.23
52535;BME280;38443;53.164;5.802;2022-08-05T06:19:28;101770.66;;;16.65;72.99
52535;BME280;38443;53.164;5.802;2022-08-05T06:21:54;101761.41;;;16.70;72.14
52535;BME280;38443;53.164;5.802;2022-08-05T06:24:19;101757.59;;;16.76;72.21
52535;BME280;38443;53.164;5.802;2022-08-05T06:26:44;101755.63;;;16.80;71.86
52535;BME280;38443;53.164;5.802;2022-08-05T06:29:10;101769.81;;;16.86;71.55
52535;BME280;38443;53.164;5.802;2022-08-05T06:31:36;101762.38;;;16.91;71.16
52535;BME280;38443;53.164;5.802;2022-08-05T06:34:02;101771.06;;;17.00;70.74
52535;BME280;38443;53.164;5.802;2022-08-05T06:36:27;101775.91;;;17.13;70.21
52535;BME280;38443;53.164;5.802;2022-08-05T06:38:53;101781.19;;;17.17;69.83
52535;BME280;38443;53.164;5.802;2022-08-05T06:41:20;101782.03;;;17.39;69.59
52535;BME280;38443;53.164;5.802;2022-08-05T06:43:46;101771.06;;;18.24;67.35
52535;BME280;38443;53.164;5.802;2022-08-05T06:46:11;101769.38;;;18.79;66.36
52535;BME280;38443;53.164;5.802;2022-08-05T06:48:36;101762.31;;;19.30;64.98
52535;BME280;38443;53.164;5.802;2022-08-05T06:51:03;101766.97;;;19.80;63.12
52535;BME280;38443;53.164;5.802;2022-08-05T06:53:28;101758.94;;;20.28;61.47
52535;BME280;38443;53.164;5.802;2022-08-05T06:55:55;101773.47;;;20.60;59.04
52535;BME280;38443;53.164;5.802;2022-08-05T06:58:20;101771.81;;;20.89;58.94
52535;BME280;38443;53.164;5.802;2022-08-05T07:00:46;101778.13;;;21.06;56.99
52535;BME280;38443;53.164;5.802;2022-08-05T07:03:11;101777.03;;;21.24;57.68
52535;BME280;38443;53.164;5.802;2022-08-05T07:05:36;101777.66;;;21.29;57.59
52535;BME280;38443;53.164;5.802;2022-08-05T07:08:02;101774.72;;;21.48;57.34
52535;BME280;38443;53.164;5.802;2022-08-05T07:10:27;101774.56;;;21.66;56.39
52535;BME280;38443;53.164;5.802;2022-08-05T07:12:53;101772.59;;;21.54;56.81
52535;BME280;38443;53.164;5.802;2022-08-05T07:15:37;101789.41;;;21.30;56.60
52535;BME280;38443;53.164;5.802;2022-08-05T07:18:21;101790.25;;;21.00;56.99
52535;BME280;38443;53.164;5.802;2022-08-05T07:20:48;101795.59;;;21.02;57.15
52535;BME280;38443;53.164;5.802;2022-08-05T07:23:13;101791.69;;;21.38;56.02
52535;BME280;38443;53.164;5.802;2022-08-05T07:25:39;101794.53;;;21.66;55.43
52535;BME280;38443;53.164;5.802;2022-08-05T07:28:04;101800.19;;;21.78;54.64
52535;BME280;38443;53.164;5.802;2022-08-05T07:30:34;101812.56;;;21.69;53.06
52535;BME280;38443;53.164;5.802;2022-08-05T07:33:04;101820.16;;;21.78;52.96
52535;BME280;38443;53.164;5.802;2022-08-05T07:35:30;101814.34;;;21.38;54.57
52535;BME280;38443;53.164;5.802;2022-08-05T07:37:55;101821.03;;;21.32;54.18
52535;BME280;38443;53.164;5.802;2022-08-05T07:40:21;101822.66;;;20.73;55.45
52535;BME280;38443;53.164;5.802;2022-08-05T07:42:47;101826.75;;;20.31;55.87
52535;BME280;38443;53.164;5.802;2022-08-05T07:45:12;101831.84;;;19.86;56.73
52535;BME280;38443;53.164;5.802;2022-08-05T07:47:38;101821.66;;;20.25;56.17
52535;BME280;38443;53.164;5.802;2022-08-05T07:50:03;101826.16;;;20.59;55.33
52535;BME280;38443;53.164;5.802;2022-08-05T07:52:37;101830.28;;;21.14;53.47
52535;BME280;38443;53.164;5.802;2022-08-05T07:55:03;101831.97;;;21.01;54.77
52535;BME280;38443;53.164;5.802;2022-08-05T07:57:28;101833.63;;;20.54;55.33
52535;BME280;38443;53.164;5.802;2022-08-05T07:59:53;101833.09;;;20.65;55.49
52535;BME280;38443;53.164;5.802;2022-08-05T08:02:23;101838.28;;;20.52;54.19
52535;BME280;38443;53.164;5.802;2022-08-05T08:04:49;101844.69;;;20.00;55.67
52535;BME280;38443;53.164;5.802;2022-08-05T08:07:19;101846.88;;;20.11;54.93
52535;BME280;38443;53.164;5.802;2022-08-05T08:09:45;101846.59;;;20.82;54.01
52535;BME280;38443;53.164;5.802;2022-08-05T08:12:10;101847.41;;;21.00;52.57
52535;BME280;38443;53.164;5.802;2022-08-05T08:14:39;101853.56;;;20.88;52.07
52535;BME280;38443;53.164;5.802;2022-08-05T08:17:04;101849.34;;;21.14;50.86
52535;BME280;38443;53.164;5.802;2022-08-05T08:19:35;101850.78;;;21.67;49.53
52535;BME280;38443;53.164;5.802;2022-08-05T08:22:01;101848.09;;;21.20;50.44
52535;BME280;38443;53.164;5.802;2022-08-05T08:24:26;101860.03;;;20.69;51.31
52535;BME280;38443;53.164;5.802;2022-08-05T08:26:51;101848.31;;;21.01;51.32
52535;BME280;38443;53.164;5.802;2022-08-05T08:29:17;101847.03;;;21.38;50.29
52535;BME280;38443;53.164;5.802;2022-08-05T08:31:42;101857.94;;;21.22;50.52
52535;BME280;38443;53.164;5.802;2022-08-05T08:34:07;101858.66;;;21.10;50.63
52535;BME280;38443;53.164;5.802;2022-08-05T08:36:33;101859.50;;;21.42;49.83
52535;BME280;38443;53.164;5.802;2022-08-05T08:38:58;101867.69;;;21.58;48.53
52535;BME280;38443;53.164;5.802;2022-08-05T08:41:29;101873.34;;;21.85;46.80
52535;BME280;38443;53.164;5.802;2022-08-05T08:43:56;101867.28;;;22.25;46.85
52535;BME280;38443;53.164;5.802;2022-08-05T08:46:30;101863.81;;;22.37;44.24
52535;BME280;38443;53.164;5.802;2022-08-05T08:48:56;101859.72;;;22.44;43.77
52535;BME280;38443;53.164;5.802;2022-08-05T08:51:23;101863.63;;;22.40;43.00
52535;BME280;38443;53.164;5.802;2022-08-05T08:53:52;101860.78;;;22.27;43.61
52535;BME280;38443;53.164;5.802;2022-08-05T08:56:17;101866.63;;;22.36;43.16
52535;BME280;38443;53.164;5.802;2022-08-05T08:58:45;101870.09;;;22.23;42.37
52535;BME280;38443;53.164;5.802;2022-08-05T09:01:11;101863.66;;;22.10;41.75
52535;BME280;38443;53.164;5.802;2022-08-05T09:03:37;101870.06;;;22.09;41.90
52535;BME280;38443;53.164;5.802;2022-08-05T09:06:03;101868.41;;;22.21;41.79
52535;BME280;38443;53.164;5.802;2022-08-05T09:08:28;101867.94;;;22.14;40.69
52535;BME280;38443;53.164;5.802;2022-08-05T09:10:53;101868.31;;;22.08;41.04
52535;BME280;38443;53.164;5.802;2022-08-05T09:13:21;101883.59;;;22.10;41.45
52535;BME280;38443;53.164;5.802;2022-08-05T09:15:46;101880.41;;;22.18;42.11
52535;BME280;38443;53.164;5.802;2022-08-05T09:18:11;101882.06;;;22.21;41.42
52535;BME280;38443;53.164;5.802;2022-08-05T09:20:37;101881.53;;;22.30;41.66
52535;BME280;38443;53.164;5.802;2022-08-05T09:23:16;101881.25;;;22.35;39.81
52535;BME280;38443;53.164;5.802;2022-08-05T09:25:43;101878.63;;;22.47;40.62
52535;BME280;38443;53.164;5.802;2022-08-05T09:28:12;101869.56;;;22.61;41.09
52535;BME280;38443;53.164;5.802;2022-08-05T09:30:42;101870.06;;;22.68;40.30
52535;BME280;38443;53.164;5.802;2022-08-05T09:33:08;101867.09;;;22.71;40.24
52535;BME280;38443;53.164;5.802;2022-08-05T09:35:33;101870.84;;;22.56;40.37
52535;BME280;38443;53.164;5.802;2022-08-05T09:37:59;101870.84;;;22.41;40.30
52535;BME280;38443;53.164;5.802;2022-08-05T09:42:53;101881.47;;;22.01;40.41
52535;BME280;38443;53.164;5.802;2022-08-05T09:45:18;101886.00;;;21.70;40.61
52535;BME280;38443;53.164;5.802;2022-08-05T09:47:44;101877.38;;;21.48;41.31
52535;BME280;38443;53.164;5.802;2022-08-05T09:50:09;101889.38;;;21.12;42.49
52535;BME280;38443;53.164;5.802;2022-08-05T09:52:35;101894.13;;;21.08;42.19
52535;BME280;38443;53.164;5.802;2022-08-05T09:55:08;101893.06;;;20.95;42.42
52535;BME280;38443;53.164;5.802;2022-08-05T09:57:39;101879.91;;;20.87;41.74
52535;BME280;38443;53.164;5.802;2022-08-05T10:00:14;101900.72;;;21.04;41.62
52535;BME280;38443;53.164;5.802;2022-08-05T10:02:45;101891.47;;;20.75;42.02
52535;BME280;38443;53.164;5.802;2022-08-05T10:05:12;101910.84;;;20.51;42.56
52535;BME280;38443;53.164;5.802;2022-08-05T10:10:10;101906.25;;;20.87;42.77
52535;BME280;38443;53.164;5.802;2022-08-05T10:13:00;101923.69;;;20.99;42.00
52535;BME280;38443;53.164;5.802;2022-08-05T10:15:38;101923.19;;;21.08;41.72
52535;BME280;38443;53.164;5.802;2022-08-05T10:18:13;101917.28;;;20.84;41.93
52535;BME280;38443;53.164;5.802;2022-08-05T10:20:50;101923.78;;;20.81;43.15
52535;BME280;38443;53.164;5.802;2022-08-05T10:23:22;101918.03;;;20.70;44.72
52535;BME280;38443;53.164;5.802;2022-08-05T10:25:48;101914.94;;;20.60;44.64
52535;BME280;38443;53.164;5.802;2022-08-05T10:28:15;101916.97;;;20.72;42.67
52535;BME280;38443;53.164;5.802;2022-08-05T10:30:41;101923.38;;;21.05;43.09
52535;BME280;38443;53.164;5.802;2022-08-05T10:33:07;101919.94;;;21.01;43.83
52535;BME280;38443;53.164;5.802;2022-08-05T10:35:35;101933.00;;;20.95;43.60
52535;BME280;38443;53.164;5.802;2022-08-05T10:38:02;101936.53;;;20.97;44.09
52535;BME280;38443;53.164;5.802;2022-08-05T10:46:19;101939.72;;;20.71;43.21
52535;BME280;38443;53.164;5.802;2022-08-05T10:48:49;101953.91;;;20.94;42.30
52535;BME280;38443;53.164;5.802;2022-08-05T10:51:20;101939.19;;;21.14;41.83
52535;BME280;38443;53.164;5.802;2022-08-05T10:56:18;101954.56;;;21.15;41.97
52535;BME280;38443;53.164;5.802;2022-08-05T11:01:38;101969.81;;;21.02;41.16
52535;BME280;38443;53.164;5.802;2022-08-05T11:09:37;101995.41;;;21.15;43.54
52535;BME280;38443;53.164;5.802;2022-08-05T11:12:03;101994.94;;;20.91;44.08
52535;BME280;38443;53.164;5.802;2022-08-05T11:14:32;102009.09;;;20.80;43.73
52535;BME280;38443;53.164;5.802;2022-08-05T11:19:52;102019.75;;;20.67;44.40
52535;BME280;38443;53.164;5.802;2022-08-05T11:22:38;102023.66;;;20.44;44.38
52535;BME280;38443;53.164;5.802;2022-08-05T11:25:40;102026.06;;;20.33;44.20
52535;BME280;38443;53.164;5.802;2022-08-05T11:33:37;102041.88;;;19.88;46.18
52535;BME280;38443;53.164;5.802;2022-08-05T11:36:05;102049.34;;;20.02;46.42
52535;BME280;38443;53.164;5.802;2022-08-05T11:43:30;102051.41;;;20.33;44.99
52535;BME280;38443;53.164;5.802;2022-08-05T11:45:55;102054.38;;;20.46;43.37
52535;BME280;38443;53.164;5.802;2022-08-05T11:48:22;102061.47;;;20.31;43.80
52535;BME280;38443;53.164;5.802;2022-08-05T11:50:49;102059.31;;;20.38;44.19
52535;BME280;38443;53.164;5.802;2022-08-05T11:53:15;102065.47;;;20.61;44.15
52535;BME280;38443;53.164;5.802;2022-08-05T11:55:59;102067.69;;;20.70;44.57
52535;BME280;38443;53.164;5.802;2022-08-05T11:58:35;102057.75;;;20.51;43.91
52535;BME280;38443;53.164;5.802;2022-08-05T12:01:04;102072.25;;;20.16;44.83
52535;BME280;38443;53.164;5.802;2022-08-05T12:03:39;102071.09;;;20.02;45.67
52535;BME280;38443;53.164;5.802;2022-08-05T12:06:05;102079.53;;;19.96;45.24
52535;BME280;38443;53.164;5.802;2022-08-05T12:08:31;102072.91;;;20.38;44.43
52535;BME280;38443;53.164;5.802;2022-08-05T12:10:57;102068.50;;;20.89;43.99
52535;BME280;38443;53.164;5.802;2022-08-05T12:13:24;102073.28;;;21.02;44.24
52535;BME280;38443;53.164;5.802;2022-08-05T12:15:50;102071.09;;;21.08;43.71
52535;BME280;38443;53.164;5.802;2022-08-05T12:18:24;102080.72;;;20.98;44.19
52535;BME280;38443;53.164;5.802;2022-08-05T12:20:51;102076.63;;;21.07;43.84
52535;BME280;38443;53.164;5.802;2022-08-05T12:23:16;102081.81;;;21.11;43.19
52535;BME280;38443;53.164;5.802;2022-08-05T12:25:49;102083.75;;;20.92;41.89
52535;BME280;38443;53.164;5.802;2022-08-05T12:28:35;102087.84;;;20.66;42.34
52535;BME280;38443;53.164;5.802;2022-08-05T12:31:01;102089.03;;;20.60;43.40
52535;BME280;38443;53.164;5.802;2022-08-05T12:33:27;102082.84;;;20.57;43.28
52535;BME280;38443;53.164;5.802;2022-08-05T12:35:54;102089.34;;;20.37;44.07
52535;BME280;38443;53.164;5.802;2022-08-05T12:38:23;102100.41;;;20.15;44.08
52535;BME280;38443;53.164;5.802;2022-08-05T12:40:49;102100.53;;;20.11;44.03
52535;BME280;38443;53.164;5.802;2022-08-05T12:43:15;102104.88;;;20.16;44.58
52535;BME280;38443;53.164;5.802;2022-08-05T12:45:51;102107.28;;;20.22;44.89
52535;BME280;38443;53.164;5.802;2022-08-05T12:48:17;102110.31;;;20.16;45.07
52535;BME280;38443;53.164;5.802;2022-08-05T12:50:42;102112.75;;;20.03;44.57
52535;BME280;38443;53.164;5.802;2022-08-05T12:53:14;102122.38;;;19.91;44.38
52535;BME280;38443;53.164;5.802;2022-08-05T12:55:40;102122.97;;;19.79;47.45
52535;BME280;38443;53.164;5.802;2022-08-05T12:58:06;102135.28;;;19.46;49.53
52535;BME280;38443;53.164;5.802;2022-08-05T13:00:32;102144.09;;;19.32;51.29
52535;BME280;38443;53.164;5.802;2022-08-05T13:03:00;102153.78;;;19.18;51.05
52535;BME280;38443;53.164;5.802;2022-08-05T13:05:26;102149.50;;;19.12;51.92
52535;BME280;38443;53.164;5.802;2022-08-05T13:07:56;102159.09;;;18.78;52.18
52535;BME280;38443;53.164;5.802;2022-08-05T13:10:22;102155.66;;;18.74;50.83
52535;BME280;38443;53.164;5.802;2022-08-05T13:12:48;102166.50;;;18.97;50.39
52535;BME280;38443;53.164;5.802;2022-08-05T13:15:13;102166.97;;;19.06;49.82
52535;BME280;38443;53.164;5.802;2022-08-05T13:17:39;102166.75;;;19.31;49.49
52535;BME280;38443;53.164;5.802;2022-08-05T13:20:14;102166.84;;;19.69;48.58
52535;BME280;38443;53.164;5.802;2022-08-05T13:22:45;102174.97;;;19.71;48.55
52535;BME280;38443;53.164;5.802;2022-08-05T13:25:13;102179.09;;;19.59;47.99
52535;BME280;38443;53.164;5.802;2022-08-05T13:27:47;102174.25;;;19.66;47.59